This is the latest recevied weather packets stored in our database for station/object WA1TYB-13. If no packets are shown the sender has not sent any weather packets the latest 10 day(s).
| Time | Temp. | Humidity | Pressure | Rain* | Wind** | Luminosity | Snow |
|---|---|---|---|---|---|---|---|
| 1788501868 | 15.56° C | 49% | 1010.1 hPa | 0 mm | - | 0 W/m² | - |
| 1788501564 | 16.11° C | 49% | 1009.7 hPa | 0 mm | - | 0 W/m² | - |
| 1788501259 | 16.67° C | 46% | 1009.9 hPa | 0 mm | - | 0 W/m² | - |
| 1788500955 | 16.67° C | 44% | 1009.8 hPa | 0 mm | - | 0 W/m² | - |
| 1788500650 | 16.67° C | 44% | 1009.9 hPa | 0 mm | - | 0 W/m² | - |
| 1788500346 | 16.67° C | 46% | 1010.2 hPa | 0 mm | - | 0 W/m² | - |
| 1788500045 | 16.11° C | 46% | 1010.2 hPa | 0 mm | - | 0 W/m² | - |
| 1788499741 | 16.67° C | 44% | 1010.2 hPa | 0 mm | - | 0 W/m² | - |
| 1788499437 | 16.67° C | 42% | 1010.3 hPa | 0 mm | - | 0 W/m² | - |
| 1788499133 | 16.67° C | 40% | 1010.3 hPa | 0 mm | - | 0 W/m² | - |
| 1788498829 | 17.22° C | 39% | 1010.3 hPa | 0 mm | - | 0 W/m² | - |
| 1788498523 | 18.33° C | 36% | 1010.3 hPa | 0 mm | - | 0 W/m² | - |
| 1788498220 | 17.78° C | 37% | 1010.3 hPa | 0 mm | - | 0 W/m² | - |
| 1788497920 | 17.78° C | 38% | 1010.2 hPa | 0 mm | - | 0 W/m² | - |
| 1788497615 | 17.78° C | 39% | 1010.3 hPa | 0 mm | - | 0 W/m² | - |
| 1788497315 | 17.78° C | 38% | 1010.4 hPa | 0 mm | - | 0 W/m² | - |
| 1788497011 | 17.78° C | 39% | 1010.3 hPa | 0 mm | - | 0 W/m² | - |
| 1788496707 | 17.22° C | 42% | 1010.5 hPa | 0 mm | - | 0 W/m² | - |
| 1788496404 | 18.89° C | 37% | 1010.5 hPa | 0 mm | - | 0 W/m² | - |
| 1788496098 | 18.89° C | 35% | 1010.4 hPa | 0 mm | - | 0 W/m² | - |
| 1788495795 | 18.89° C | 35% | 1010.8 hPa | 0 mm | - | 0 W/m² | - |
| 1788495494 | 18.89° C | 35% | 1011 hPa | 0 mm | - | 0 W/m² | - |
| 1788495191 | 18.89° C | 35% | 1010.8 hPa | 0 mm | - | 0 W/m² | - |
| 1788494886 | 18.89° C | 35% | 1011 hPa | 0 mm | - | 0 W/m² | - |
| 1788494581 | 18.89° C | 37% | 1011.2 hPa | 0 mm | - | 0 W/m² | - |
* Rain latest hour (hover to see other rain measurements)
** Current wind speed in m/s (hover to see current wind gust speed)